Disclaimer

Please do not use the information listed here in-flight or in-navigation, as they are not provided to us by the airports but are provided by volunteers, so they might be outdated.

Search


Regions


Airport information page

Radio informations:
MERIDA TWR - 118.05 MHz
Ground (GND) - 121.9 MHz

Airport informations:
Latitude: 08° 34' 56.26" N
Longitude: 071° 09' 40.27" W
Elevation: 5007 feet - 1526 meters
Operating hours: From sunrise to sunset (SR-SS)
Operating agency: Civil government, landing fees and diplomatic clearance may be required
Timezone: UTC-4
Fuel: N/A

Runway information:
06/24 - 5348 x 148 feet< - >1630 x 45 meters

Recent METARs:
SVMD 190300Z 00000KT 8000 VCBR BKN010 18/17 Q1022
SVMD 190300Z 00000KT 8000 VCBR BKN010 18/17 Q1022
SVMD 190300Z 00000KT 8000 VCBR BKN010 18/17 Q1022

Airport on the map: